sensor_id;sensor_type;location;lat;lon;timestamp;P1;durP1;ratioP1;P2;durP2;ratioP2
64401;SDS011;50724;42.376;23.768;2024-01-07T00:02:21;25.60;;;11.32;;
64401;SDS011;50724;42.376;23.768;2024-01-07T00:05:22;29.60;;;13.43;;
64401;SDS011;50724;42.376;23.768;2024-01-07T00:08:22;26.80;;;11.85;;
64401;SDS011;50724;42.376;23.768;2024-01-07T00:11:23;24.52;;;11.38;;
64401;SDS011;50724;42.376;23.768;2024-01-07T00:14:23;27.95;;;12.15;;
64401;SDS011;50724;42.376;23.768;2024-01-07T00:17:23;27.47;;;11.93;;
64401;SDS011;50724;42.376;23.768;2024-01-07T00:20:24;27.23;;;11.77;;
64401;SDS011;50724;42.376;23.768;2024-01-07T00:23:24;26.30;;;12.00;;
64401;SDS011;50724;42.376;23.768;2024-01-07T00:26:25;20.92;;;9.88;;
64401;SDS011;50724;42.376;23.768;2024-01-07T00:29:25;29.65;;;10.02;;
64401;SDS011;50724;42.376;23.768;2024-01-07T00:32:26;19.42;;;7.90;;
64401;SDS011;50724;42.376;23.768;2024-01-07T00:35:26;24.77;;;10.27;;
64401;SDS011;50724;42.376;23.768;2024-01-07T00:38:27;26.77;;;10.68;;
64401;SDS011;50724;42.376;23.768;2024-01-07T00:41:28;24.50;;;9.40;;
64401;SDS011;50724;42.376;23.768;2024-01-07T00:44:30;23.85;;;9.90;;
64401;SDS011;50724;42.376;23.768;2024-01-07T00:47:30;27.95;;;10.88;;
64401;SDS011;50724;42.376;23.768;2024-01-07T00:50:31;28.13;;;11.18;;
64401;SDS011;50724;42.376;23.768;2024-01-07T00:53:39;25.25;;;11.20;;
64401;SDS011;50724;42.376;23.768;2024-01-07T00:56:48;32.55;;;12.73;;
64401;SDS011;50724;42.376;23.768;2024-01-07T00:59:49;21.80;;;10.23;;
64401;SDS011;50724;42.376;23.768;2024-01-07T01:02:50;27.02;;;10.10;;
64401;SDS011;50724;42.376;23.768;2024-01-07T01:05:51;28.70;;;11.32;;
64401;SDS011;50724;42.376;23.768;2024-01-07T01:08:51;39.63;;;12.07;;
64401;SDS011;50724;42.376;23.768;2024-01-07T01:12:00;66.78;;;13.15;;
64401;SDS011;50724;42.376;23.768;2024-01-07T01:15:01;27.98;;;11.40;;
64401;SDS011;50724;42.376;23.768;2024-01-07T01:18:01;33.42;;;11.65;;
64401;SDS011;50724;42.376;23.768;2024-01-07T01:21:01;45.70;;;12.30;;
64401;SDS011;50724;42.376;23.768;2024-01-07T01:24:02;265.75;;;24.38;;
64401;SDS011;50724;42.376;23.768;2024-01-07T01:27:03;158.23;;;17.95;;
64401;SDS011;50724;42.376;23.768;2024-01-07T01:30:03;44.08;;;12.85;;
64401;SDS011;50724;42.376;23.768;2024-01-07T01:33:04;29.58;;;12.35;;
64401;SDS011;50724;42.376;23.768;2024-01-07T01:36:05;31.15;;;12.55;;
64401;SDS011;50724;42.376;23.768;2024-01-07T01:39:06;35.08;;;12.35;;
64401;SDS011;50724;42.376;23.768;2024-01-07T01:42:06;36.45;;;13.30;;
64401;SDS011;50724;42.376;23.768;2024-01-07T01:45:07;44.72;;;12.50;;
64401;SDS011;50724;42.376;23.768;2024-01-07T01:48:08;46.35;;;13.35;;
64401;SDS011;50724;42.376;23.768;2024-01-07T01:51:08;43.38;;;14.23;;
64401;SDS011;50724;42.376;23.768;2024-01-07T01:54:09;100.93;;;17.55;;
64401;SDS011;50724;42.376;23.768;2024-01-07T01:57:19;51.25;;;16.55;;
64401;SDS011;50724;42.376;23.768;2024-01-07T02:00:22;38.70;;;14.32;;
64401;SDS011;50724;42.376;23.768;2024-01-07T02:03:23;36.20;;;16.05;;
64401;SDS011;50724;42.376;23.768;2024-01-07T02:06:23;54.33;;;17.38;;
64401;SDS011;50724;42.376;23.768;2024-01-07T02:09:24;40.88;;;16.25;;
64401;SDS011;50724;42.376;23.768;2024-01-07T02:12:25;46.03;;;15.88;;
64401;SDS011;50724;42.376;23.768;2024-01-07T02:15:25;35.42;;;15.30;;
64401;SDS011;50724;42.376;23.768;2024-01-07T02:18:26;36.63;;;15.00;;
64401;SDS011;50724;42.376;23.768;2024-01-07T02:21:26;33.95;;;13.73;;
64401;SDS011;50724;42.376;23.768;2024-01-07T02:24:28;37.80;;;15.63;;
64401;SDS011;50724;42.376;23.768;2024-01-07T02:27:30;31.27;;;14.95;;
64401;SDS011;50724;42.376;23.768;2024-01-07T02:30:30;35.17;;;14.95;;
64401;SDS011;50724;42.376;23.768;2024-01-07T02:33:31;38.72;;;14.52;;
64401;SDS011;50724;42.376;23.768;2024-01-07T02:36:31;35.08;;;15.15;;
64401;SDS011;50724;42.376;23.768;2024-01-07T02:39:32;50.13;;;14.57;;
64401;SDS011;50724;42.376;23.768;2024-01-07T02:42:40;40.92;;;15.55;;
64401;SDS011;50724;42.376;23.768;2024-01-07T02:45:41;101.22;;;19.20;;
64401;SDS011;50724;42.376;23.768;2024-01-07T02:48:41;35.78;;;15.27;;
64401;SDS011;50724;42.376;23.768;2024-01-07T02:51:42;39.42;;;14.13;;
64401;SDS011;50724;42.376;23.768;2024-01-07T02:54:45;63.10;;;16.50;;
64401;SDS011;50724;42.376;23.768;2024-01-07T02:57:45;30.13;;;13.30;;
64401;SDS011;50724;42.376;23.768;2024-01-07T03:00:46;30.33;;;13.67;;
64401;SDS011;50724;42.376;23.768;2024-01-07T03:03:46;33.58;;;13.23;;
64401;SDS011;50724;42.376;23.768;2024-01-07T03:06:46;49.92;;;14.93;;
64401;SDS011;50724;42.376;23.768;2024-01-07T03:09:48;205.43;;;22.60;;
64401;SDS011;50724;42.376;23.768;2024-01-07T03:12:49;126.85;;;16.73;;
64401;SDS011;50724;42.376;23.768;2024-01-07T03:15:49;161.80;;;18.90;;
64401;SDS011;50724;42.376;23.768;2024-01-07T03:18:50;92.88;;;15.88;;
64401;SDS011;50724;42.376;23.768;2024-01-07T03:21:51;84.93;;;14.48;;
64401;SDS011;50724;42.376;23.768;2024-01-07T03:24:51;72.00;;;13.50;;
64401;SDS011;50724;42.376;23.768;2024-01-07T03:27:51;32.35;;;11.68;;
64401;SDS011;50724;42.376;23.768;2024-01-07T03:30:52;23.73;;;10.50;;
64401;SDS011;50724;42.376;23.768;2024-01-07T03:33:52;26.33;;;11.18;;
64401;SDS011;50724;42.376;23.768;2024-01-07T03:36:53;26.67;;;11.50;;
64401;SDS011;50724;42.376;23.768;2024-01-07T03:39:53;23.33;;;10.05;;
64401;SDS011;50724;42.376;23.768;2024-01-07T03:42:54;21.30;;;9.77;;
64401;SDS011;50724;42.376;23.768;2024-01-07T03:45:54;23.25;;;10.05;;
64401;SDS011;50724;42.376;23.768;2024-01-07T03:48:54;21.77;;;9.43;;
64401;SDS011;50724;42.376;23.768;2024-01-07T03:51:55;23.27;;;11.00;;
64401;SDS011;50724;42.376;23.768;2024-01-07T03:54:55;38.63;;;14.13;;
64401;SDS011;50724;42.376;23.768;2024-01-07T03:57:56;30.85;;;12.50;;
64401;SDS011;50724;42.376;23.768;2024-01-07T04:00:56;33.95;;;13.57;;
64401;SDS011;50724;42.376;23.768;2024-01-07T04:03:57;27.17;;;11.30;;
64401;SDS011;50724;42.376;23.768;2024-01-07T04:06:57;28.95;;;12.52;;
64401;SDS011;50724;42.376;23.768;2024-01-07T04:09:58;33.00;;;11.98;;
64401;SDS011;50724;42.376;23.768;2024-01-07T04:12:58;27.13;;;10.98;;
64401;SDS011;50724;42.376;23.768;2024-01-07T04:15:59;28.23;;;10.68;;
64401;SDS011;50724;42.376;23.768;2024-01-07T04:18:59;27.30;;;11.20;;
64401;SDS011;50724;42.376;23.768;2024-01-07T04:22:00;33.88;;;12.85;;
64401;SDS011;50724;42.376;23.768;2024-01-07T04:25:00;24.70;;;11.02;;
64401;SDS011;50724;42.376;23.768;2024-01-07T04:28:01;24.42;;;10.10;;
64401;SDS011;50724;42.376;23.768;2024-01-07T04:31:01;27.65;;;10.77;;
64401;SDS011;50724;42.376;23.768;2024-01-07T04:34:02;28.27;;;11.15;;
64401;SDS011;50724;42.376;23.768;2024-01-07T04:37:02;24.20;;;11.05;;
64401;SDS011;50724;42.376;23.768;2024-01-07T04:40:03;26.77;;;10.27;;
64401;SDS011;50724;42.376;23.768;2024-01-07T04:43:04;22.80;;;10.32;;
64401;SDS011;50724;42.376;23.768;2024-01-07T04:46:04;25.10;;;11.52;;
64401;SDS011;50724;42.376;23.768;2024-01-07T04:49:05;27.20;;;12.30;;
64401;SDS011;50724;42.376;23.768;2024-01-07T04:52:06;24.27;;;10.98;;
64401;SDS011;50724;42.376;23.768;2024-01-07T04:55:07;21.45;;;9.43;;
64401;SDS011;50724;42.376;23.768;2024-01-07T04:58:08;20.48;;;9.05;;
64401;SDS011;50724;42.376;23.768;2024-01-07T05:01:09;24.38;;;11.50;;
64401;SDS011;50724;42.376;23.768;2024-01-07T05:04:09;23.60;;;10.40;;
64401;SDS011;50724;42.376;23.768;2024-01-07T05:07:10;23.35;;;10.77;;
64401;SDS011;50724;42.376;23.768;2024-01-07T05:10:11;22.50;;;10.30;;
64401;SDS011;50724;42.376;23.768;2024-01-07T05:13:11;21.60;;;9.48;;
64401;SDS011;50724;42.376;23.768;2024-01-07T05:16:21;23.08;;;10.73;;
64401;SDS011;50724;42.376;23.768;2024-01-07T05:19:21;23.67;;;9.52;;
64401;SDS011;50724;42.376;23.768;2024-01-07T05:22:22;25.77;;;10.80;;
64401;SDS011;50724;42.376;23.768;2024-01-07T05:25:22;21.05;;;9.57;;
64401;SDS011;50724;42.376;23.768;2024-01-07T05:28:23;22.67;;;9.82;;
64401;SDS011;50724;42.376;23.768;2024-01-07T05:31:24;21.20;;;9.00;;
64401;SDS011;50724;42.376;23.768;2024-01-07T05:34:24;20.93;;;10.70;;
64401;SDS011;50724;42.376;23.768;2024-01-07T05:37:25;20.20;;;10.10;;
64401;SDS011;50724;42.376;23.768;2024-01-07T05:40:33;22.52;;;9.00;;
64401;SDS011;50724;42.376;23.768;2024-01-07T05:43:35;23.58;;;10.30;;
64401;SDS011;50724;42.376;23.768;2024-01-07T05:46:39;22.88;;;10.25;;
64401;SDS011;50724;42.376;23.768;2024-01-07T05:49:40;17.73;;;8.57;;
64401;SDS011;50724;42.376;23.768;2024-01-07T05:52:40;18.43;;;8.27;;
64401;SDS011;50724;42.376;23.768;2024-01-07T05:55:40;15.97;;;6.93;;
64401;SDS011;50724;42.376;23.768;2024-01-07T05:58:41;13.10;;;6.07;;
64401;SDS011;50724;42.376;23.768;2024-01-07T06:01:41;17.00;;;7.60;;
64401;SDS011;50724;42.376;23.768;2024-01-07T06:04:42;15.60;;;7.00;;
64401;SDS011;50724;42.376;23.768;2024-01-07T06:07:43;15.35;;;7.72;;
64401;SDS011;50724;42.376;23.768;2024-01-07T06:10:43;21.63;;;11.60;;
64401;SDS011;50724;42.376;23.768;2024-01-07T06:13:44;19.65;;;8.82;;
64401;SDS011;50724;42.376;23.768;2024-01-07T06:16:44;21.13;;;9.23;;
64401;SDS011;50724;42.376;23.768;2024-01-07T06:19:45;13.93;;;6.10;;
64401;SDS011;50724;42.376;23.768;2024-01-07T06:22:45;12.65;;;6.55;;
64401;SDS011;50724;42.376;23.768;2024-01-07T06:25:46;22.13;;;11.40;;
64401;SDS011;50724;42.376;23.768;2024-01-07T06:28:46;19.75;;;9.85;;
64401;SDS011;50724;42.376;23.768;2024-01-07T06:31:47;24.95;;;12.70;;
64401;SDS011;50724;42.376;23.768;2024-01-07T06:34:48;21.42;;;11.10;;
64401;SDS011;50724;42.376;23.768;2024-01-07T06:37:49;20.00;;;9.27;;
64401;SDS011;50724;42.376;23.768;2024-01-07T06:40:49;57.22;;;18.13;;
64401;SDS011;50724;42.376;23.768;2024-01-07T06:43:50;47.63;;;11.85;;
64401;SDS011;50724;42.376;23.768;2024-01-07T06:46:52;45.83;;;11.55;;
64401;SDS011;50724;42.376;23.768;2024-01-07T06:49:52;45.15;;;11.10;;
64401;SDS011;50724;42.376;23.768;2024-01-07T06:52:53;108.15;;;18.48;;
64401;SDS011;50724;42.376;23.768;2024-01-07T06:55:53;259.37;;;25.60;;
64401;SDS011;50724;42.376;23.768;2024-01-07T06:58:54;58.27;;;13.80;;
64401;SDS011;50724;42.376;23.768;2024-01-07T07:01:54;29.30;;;13.80;;
64401;SDS011;50724;42.376;23.768;2024-01-07T07:04:56;25.42;;;11.98;;
64401;SDS011;50724;42.376;23.768;2024-01-07T07:07:57;24.33;;;11.60;;
64401;SDS011;50724;42.376;23.768;2024-01-07T07:10:58;26.80;;;11.32;;
64401;SDS011;50724;42.376;23.768;2024-01-07T07:14:06;25.48;;;10.98;;
64401;SDS011;50724;42.376;23.768;2024-01-07T07:17:07;29.13;;;13.57;;
64401;SDS011;50724;42.376;23.768;2024-01-07T07:20:08;25.27;;;12.95;;
64401;SDS011;50724;42.376;23.768;2024-01-07T07:23:08;24.92;;;11.10;;
64401;SDS011;50724;42.376;23.768;2024-01-07T07:26:09;23.00;;;11.15;;
64401;SDS011;50724;42.376;23.768;2024-01-07T07:29:09;24.25;;;11.85;;
64401;SDS011;50724;42.376;23.768;2024-01-07T07:32:10;27.48;;;13.30;;
64401;SDS011;50724;42.376;23.768;2024-01-07T07:35:11;23.77;;;11.33;;
64401;SDS011;50724;42.376;23.768;2024-01-07T07:38:12;24.95;;;11.77;;
64401;SDS011;50724;42.376;23.768;2024-01-07T07:41:12;24.53;;;11.57;;
64401;SDS011;50724;42.376;23.768;2024-01-07T07:44:13;25.50;;;11.07;;
64401;SDS011;50724;42.376;23.768;2024-01-07T07:47:13;22.73;;;10.60;;
64401;SDS011;50724;42.376;23.768;2024-01-07T07:50:14;24.00;;;11.48;;
64401;SDS011;50724;42.376;23.768;2024-01-07T07:53:14;23.17;;;10.90;;
64401;SDS011;50724;42.376;23.768;2024-01-07T07:56:15;24.45;;;11.32;;
64401;SDS011;50724;42.376;23.768;2024-01-07T07:59:15;16.33;;;8.27;;
64401;SDS011;50724;42.376;23.768;2024-01-07T08:02:16;13.80;;;7.97;;
64401;SDS011;50724;42.376;23.768;2024-01-07T08:05:16;14.50;;;7.78;;
64401;SDS011;50724;42.376;23.768;2024-01-07T08:08:17;17.30;;;8.27;;
64401;SDS011;50724;42.376;23.768;2024-01-07T08:11:17;17.90;;;8.48;;
64401;SDS011;50724;42.376;23.768;2024-01-07T08:14:18;17.35;;;7.07;;
64401;SDS011;50724;42.376;23.768;2024-01-07T08:17:18;13.73;;;5.53;;
64401;SDS011;50724;42.376;23.768;2024-01-07T08:20:19;12.77;;;5.82;;
64401;SDS011;50724;42.376;23.768;2024-01-07T08:23:19;11.48;;;5.63;;
64401;SDS011;50724;42.376;23.768;2024-01-07T08:26:21;12.00;;;5.68;;
64401;SDS011;50724;42.376;23.768;2024-01-07T08:29:21;12.18;;;5.90;;
64401;SDS011;50724;42.376;23.768;2024-01-07T08:32:22;11.63;;;6.07;;
64401;SDS011;50724;42.376;23.768;2024-01-07T08:35:25;14.40;;;6.60;;
64401;SDS011;50724;42.376;23.768;2024-01-07T08:38:25;9.50;;;4.80;;
64401;SDS011;50724;42.376;23.768;2024-01-07T08:41:26;12.60;;;7.47;;
64401;SDS011;50724;42.376;23.768;2024-01-07T08:44:26;14.40;;;6.68;;
64401;SDS011;50724;42.376;23.768;2024-01-07T08:47:27;11.88;;;6.85;;
64401;SDS011;50724;42.376;23.768;2024-01-07T08:50:28;10.60;;;5.88;;
64401;SDS011;50724;42.376;23.768;2024-01-07T08:53:30;11.57;;;5.80;;
64401;SDS011;50724;42.376;23.768;2024-01-07T08:56:31;12.32;;;6.35;;
64401;SDS011;50724;42.376;23.768;2024-01-07T08:59:32;12.95;;;6.32;;
64401;SDS011;50724;42.376;23.768;2024-01-07T09:02:32;14.23;;;7.13;;
64401;SDS011;50724;42.376;23.768;2024-01-07T09:05:33;13.55;;;6.82;;
64401;SDS011;50724;42.376;23.768;2024-01-07T09:08:34;12.90;;;6.45;;
64401;SDS011;50724;42.376;23.768;2024-01-07T09:11:35;14.43;;;7.35;;
64401;SDS011;50724;42.376;23.768;2024-01-07T09:14:39;10.60;;;5.65;;
64401;SDS011;50724;42.376;23.768;2024-01-07T09:17:40;10.63;;;5.20;;
64401;SDS011;50724;42.376;23.768;2024-01-07T09:20:40;12.82;;;6.38;;
64401;SDS011;50724;42.376;23.768;2024-01-07T09:23:41;21.00;;;8.77;;
64401;SDS011;50724;42.376;23.768;2024-01-07T09:26:42;19.92;;;8.02;;
64401;SDS011;50724;42.376;23.768;2024-01-07T09:29:42;15.65;;;8.40;;
64401;SDS011;50724;42.376;23.768;2024-01-07T09:32:43;14.27;;;8.10;;
64401;SDS011;50724;42.376;23.768;2024-01-07T09:35:43;16.33;;;8.20;;
64401;SDS011;50724;42.376;23.768;2024-01-07T09:38:44;31.77;;;9.83;;
64401;SDS011;50724;42.376;23.768;2024-01-07T09:41:44;19.50;;;8.48;;
64401;SDS011;50724;42.376;23.768;2024-01-07T09:44:52;12.93;;;6.90;;
64401;SDS011;50724;42.376;23.768;2024-01-07T09:47:53;13.93;;;6.30;;
64401;SDS011;50724;42.376;23.768;2024-01-07T09:50:54;12.55;;;6.28;;
64401;SDS011;50724;42.376;23.768;2024-01-07T09:53:59;13.73;;;5.72;;
64401;SDS011;50724;42.376;23.768;2024-01-07T09:57:04;9.93;;;5.70;;
64401;SDS011;50724;42.376;23.768;2024-01-07T10:00:10;10.05;;;5.07;;
64401;SDS011;50724;42.376;23.768;2024-01-07T10:03:12;16.45;;;6.15;;
64401;SDS011;50724;42.376;23.768;2024-01-07T10:06:14;9.20;;;2.95;;
64401;SDS011;50724;42.376;23.768;2024-01-07T10:09:18;8.00;;;3.90;;
64401;SDS011;50724;42.376;23.768;2024-01-07T10:12:24;8.38;;;3.42;;
64401;SDS011;50724;42.376;23.768;2024-01-07T10:15:27;8.30;;;4.07;;
64401;SDS011;50724;42.376;23.768;2024-01-07T10:18:28;9.73;;;5.10;;
64401;SDS011;50724;42.376;23.768;2024-01-07T10:21:31;8.93;;;4.93;;
64401;SDS011;50724;42.376;23.768;2024-01-07T10:24:35;6.22;;;3.60;;
64401;SDS011;50724;42.376;23.768;2024-01-07T10:27:40;6.93;;;3.72;;
64401;SDS011;50724;42.376;23.768;2024-01-07T10:30:40;7.50;;;4.05;;
64401;SDS011;50724;42.376;23.768;2024-01-07T10:33:41;9.02;;;4.13;;
64401;SDS011;50724;42.376;23.768;2024-01-07T10:36:41;7.97;;;4.53;;
64401;SDS011;50724;42.376;23.768;2024-01-07T10:39:43;9.48;;;4.43;;
64401;SDS011;50724;42.376;23.768;2024-01-07T10:42:44;8.43;;;4.57;;
64401;SDS011;50724;42.376;23.768;2024-01-07T10:45:45;8.93;;;4.35;;
64401;SDS011;50724;42.376;23.768;2024-01-07T10:48:51;8.25;;;3.85;;
64401;SDS011;50724;42.376;23.768;2024-01-07T10:51:56;8.35;;;3.83;;
64401;SDS011;50724;42.376;23.768;2024-01-07T10:55:09;8.68;;;4.13;;
64401;SDS011;50724;42.376;23.768;2024-01-07T10:58:11;9.80;;;4.72;;
64401;SDS011;50724;42.376;23.768;2024-01-07T11:01:12;19.48;;;5.60;;
64401;SDS011;50724;42.376;23.768;2024-01-07T11:07:30;8.73;;;2.95;;
64401;SDS011;50724;42.376;23.768;2024-01-07T11:10:45;8.48;;;3.95;;
64401;SDS011;50724;42.376;23.768;2024-01-07T11:13:49;8.32;;;3.88;;
64401;SDS011;50724;42.376;23.768;2024-01-07T11:16:49;6.65;;;3.58;;
64401;SDS011;50724;42.376;23.768;2024-01-07T11:19:50;8.02;;;3.85;;
64401;SDS011;50724;42.376;23.768;2024-01-07T11:22:51;8.65;;;4.03;;
64401;SDS011;50724;42.376;23.768;2024-01-07T11:25:52;7.82;;;3.80;;
64401;SDS011;50724;42.376;23.768;2024-01-07T11:28:53;7.57;;;4.00;;
64401;SDS011;50724;42.376;23.768;2024-01-07T11:31:56;8.55;;;4.00;;
64401;SDS011;50724;42.376;23.768;2024-01-07T11:34:56;8.45;;;4.50;;
64401;SDS011;50724;42.376;23.768;2024-01-07T11:41:05;9.50;;;4.40;;
64401;SDS011;50724;42.376;23.768;2024-01-07T11:47:11;9.05;;;4.57;;
64401;SDS011;50724;42.376;23.768;2024-01-07T11:50:11;8.35;;;4.57;;
64401;SDS011;50724;42.376;23.768;2024-01-07T11:53:12;8.95;;;4.70;;
64401;SDS011;50724;42.376;23.768;2024-01-07T11:56:13;9.80;;;4.95;;
64401;SDS011;50724;42.376;23.768;2024-01-07T11:59:13;10.70;;;4.78;;
64401;SDS011;50724;42.376;23.768;2024-01-07T12:02:14;7.70;;;4.35;;
64401;SDS011;50724;42.376;23.768;2024-01-07T12:05:17;9.95;;;4.10;;
64401;SDS011;50724;42.376;23.768;2024-01-07T12:08:17;7.72;;;3.88;;
64401;SDS011;50724;42.376;23.768;2024-01-07T12:11:18;7.90;;;4.68;;
64401;SDS011;50724;42.376;23.768;2024-01-07T12:14:19;10.68;;;4.47;;
64401;SDS011;50724;42.376;23.768;2024-01-07T12:17:20;8.13;;;4.25;;
64401;SDS011;50724;42.376;23.768;2024-01-07T12:20:20;9.25;;;4.82;;
64401;SDS011;50724;42.376;23.768;2024-01-07T12:23:21;12.30;;;4.53;;
64401;SDS011;50724;42.376;23.768;2024-01-07T12:26:21;7.57;;;3.77;;
64401;SDS011;50724;42.376;23.768;2024-01-07T12:29:26;6.55;;;3.38;;
64401;SDS011;50724;42.376;23.768;2024-01-07T12:32:27;7.93;;;3.38;;
64401;SDS011;50724;42.376;23.768;2024-01-07T12:35:28;6.97;;;3.42;;
64401;SDS011;50724;42.376;23.768;2024-01-07T12:38:29;11.27;;;4.03;;
64401;SDS011;50724;42.376;23.768;2024-01-07T12:41:29;6.25;;;3.25;;
64401;SDS011;50724;42.376;23.768;2024-01-07T12:44:30;5.13;;;2.78;;
64401;SDS011;50724;42.376;23.768;2024-01-07T12:47:30;6.00;;;3.30;;
64401;SDS011;50724;42.376;23.768;2024-01-07T12:50:31;5.97;;;3.20;;
64401;SDS011;50724;42.376;23.768;2024-01-07T12:53:31;7.57;;;3.42;;
64401;SDS011;50724;42.376;23.768;2024-01-07T12:56:32;6.27;;;3.17;;
64401;SDS011;50724;42.376;23.768;2024-01-07T12:59:32;6.25;;;3.42;;
64401;SDS011;50724;42.376;23.768;2024-01-07T13:02:33;5.95;;;3.00;;
64401;SDS011;50724;42.376;23.768;2024-01-07T13:05:34;6.80;;;3.42;;
64401;SDS011;50724;42.376;23.768;2024-01-07T13:08:35;6.07;;;3.08;;
64401;SDS011;50724;42.376;23.768;2024-01-07T13:11:35;6.72;;;3.08;;
64401;SDS011;50724;42.376;23.768;2024-01-07T13:14:36;8.18;;;3.72;;
64401;SDS011;50724;42.376;23.768;2024-01-07T13:17:36;7.47;;;3.72;;
64401;SDS011;50724;42.376;23.768;2024-01-07T13:20:37;7.25;;;3.50;;
64401;SDS011;50724;42.376;23.768;2024-01-07T13:23:41;7.47;;;3.10;;
64401;SDS011;50724;42.376;23.768;2024-01-07T13:26:44;6.03;;;3.10;;
64401;SDS011;50724;42.376;23.768;2024-01-07T13:29:44;5.70;;;3.00;;
64401;SDS011;50724;42.376;23.768;2024-01-07T13:32:48;5.68;;;2.50;;
64401;SDS011;50724;42.376;23.768;2024-01-07T13:35:49;6.82;;;2.83;;
64401;SDS011;50724;42.376;23.768;2024-01-07T13:38:50;7.68;;;2.90;;
64401;SDS011;50724;42.376;23.768;2024-01-07T13:41:51;6.93;;;3.20;;
64401;SDS011;50724;42.376;23.768;2024-01-07T13:44:53;5.13;;;2.85;;
64401;SDS011;50724;42.376;23.768;2024-01-07T13:47:53;6.00;;;3.20;;
64401;SDS011;50724;42.376;23.768;2024-01-07T13:50:55;6.15;;;2.67;;
64401;SDS011;50724;42.376;23.768;2024-01-07T13:53:55;6.47;;;2.95;;
64401;SDS011;50724;42.376;23.768;2024-01-07T13:56:56;4.97;;;2.65;;
64401;SDS011;50724;42.376;23.768;2024-01-07T13:59:56;5.28;;;2.50;;
64401;SDS011;50724;42.376;23.768;2024-01-07T14:02:57;6.17;;;2.60;;
64401;SDS011;50724;42.376;23.768;2024-01-07T14:05:57;7.32;;;2.90;;
64401;SDS011;50724;42.376;23.768;2024-01-07T14:08:58;6.55;;;2.80;;
64401;SDS011;50724;42.376;23.768;2024-01-07T14:11:59;6.15;;;2.83;;
64401;SDS011;50724;42.376;23.768;2024-01-07T14:14:59;5.80;;;2.50;;
64401;SDS011;50724;42.376;23.768;2024-01-07T14:18:00;5.40;;;2.50;;
64401;SDS011;50724;42.376;23.768;2024-01-07T14:21:00;6.63;;;2.78;;
64401;SDS011;50724;42.376;23.768;2024-01-07T14:24:00;6.47;;;2.70;;
64401;SDS011;50724;42.376;23.768;2024-01-07T14:27:01;5.13;;;2.25;;
64401;SDS011;50724;42.376;23.768;2024-01-07T14:30:11;7.78;;;2.85;;
64401;SDS011;50724;42.376;23.768;2024-01-07T14:33:13;5.65;;;2.25;;
64401;SDS011;50724;42.376;23.768;2024-01-07T14:36:13;7.20;;;2.60;;
64401;SDS011;50724;42.376;23.768;2024-01-07T14:39:16;5.40;;;2.22;;
64401;SDS011;50724;42.376;23.768;2024-01-07T14:42:17;6.03;;;2.47;;
64401;SDS011;50724;42.376;23.768;2024-01-07T14:45:17;4.22;;;2.13;;
64401;SDS011;50724;42.376;23.768;2024-01-07T14:48:18;6.25;;;2.47;;
64401;SDS011;50724;42.376;23.768;2024-01-07T14:51:18;6.23;;;2.90;;
64401;SDS011;50724;42.376;23.768;2024-01-07T14:54:20;6.05;;;2.45;;
64401;SDS011;50724;42.376;23.768;2024-01-07T14:57:20;6.05;;;2.40;;
64401;SDS011;50724;42.376;23.768;2024-01-07T15:00:20;5.50;;;2.20;;
64401;SDS011;50724;42.376;23.768;2024-01-07T15:03:21;6.05;;;2.70;;
64401;SDS011;50724;42.376;23.768;2024-01-07T15:06:22;5.88;;;2.40;;
64401;SDS011;50724;42.376;23.768;2024-01-07T15:09:22;6.60;;;2.53;;
64401;SDS011;50724;42.376;23.768;2024-01-07T15:12:22;6.80;;;2.50;;
64401;SDS011;50724;42.376;23.768;2024-01-07T15:15:23;6.43;;;2.55;;
64401;SDS011;50724;42.376;23.768;2024-01-07T15:18:29;8.35;;;2.55;;
64401;SDS011;50724;42.376;23.768;2024-01-07T15:21:38;6.18;;;2.33;;
64401;SDS011;50724;42.376;23.768;2024-01-07T15:24:39;6.72;;;2.70;;
64401;SDS011;50724;42.376;23.768;2024-01-07T15:27:39;6.00;;;2.50;;
64401;SDS011;50724;42.376;23.768;2024-01-07T15:30:40;7.75;;;2.63;;
64401;SDS011;50724;42.376;23.768;2024-01-07T15:33:40;4.77;;;2.50;;
64401;SDS011;50724;42.376;23.768;2024-01-07T15:36:41;5.13;;;2.13;;
64401;SDS011;50724;42.376;23.768;2024-01-07T15:39:41;5.10;;;2.20;;
64401;SDS011;50724;42.376;23.768;2024-01-07T15:42:42;6.03;;;2.08;;
64401;SDS011;50724;42.376;23.768;2024-01-07T15:45:51;5.88;;;2.05;;
64401;SDS011;50724;42.376;23.768;2024-01-07T15:48:51;5.70;;;2.30;;
64401;SDS011;50724;42.376;23.768;2024-01-07T15:51:51;4.87;;;2.00;;
64401;SDS011;50724;42.376;23.768;2024-01-07T15:54:52;5.07;;;2.03;;
64401;SDS011;50724;42.376;23.768;2024-01-07T15:57:52;5.67;;;2.60;;
64401;SDS011;50724;42.376;23.768;2024-01-07T16:00:53;5.40;;;2.30;;
64401;SDS011;50724;42.376;23.768;2024-01-07T16:03:54;4.97;;;2.03;;
64401;SDS011;50724;42.376;23.768;2024-01-07T16:06:55;6.57;;;2.10;;
64401;SDS011;50724;42.376;23.768;2024-01-07T16:09:55;11.63;;;2.40;;
64401;SDS011;50724;42.376;23.768;2024-01-07T16:12:55;5.72;;;2.53;;
64401;SDS011;50724;42.376;23.768;2024-01-07T16:15:56;6.07;;;2.20;;
64401;SDS011;50724;42.376;23.768;2024-01-07T16:18:57;5.93;;;2.42;;
64401;SDS011;50724;42.376;23.768;2024-01-07T16:21:59;5.55;;;2.40;;
64401;SDS011;50724;42.376;23.768;2024-01-07T16:24:59;5.57;;;2.30;;
64401;SDS011;50724;42.376;23.768;2024-01-07T16:28:00;6.57;;;3.20;;
64401;SDS011;50724;42.376;23.768;2024-01-07T16:31:01;7.22;;;2.70;;
64401;SDS011;50724;42.376;23.768;2024-01-07T16:34:01;8.52;;;3.20;;
64401;SDS011;50724;42.376;23.768;2024-01-07T16:37:06;7.45;;;2.78;;
64401;SDS011;50724;42.376;23.768;2024-01-07T16:40:06;8.82;;;3.30;;
64401;SDS011;50724;42.376;23.768;2024-01-07T16:43:07;6.00;;;2.95;;
64401;SDS011;50724;42.376;23.768;2024-01-07T16:46:08;6.90;;;3.20;;
64401;SDS011;50724;42.376;23.768;2024-01-07T16:49:08;6.30;;;2.60;;
64401;SDS011;50724;42.376;23.768;2024-01-07T16:52:09;9.60;;;3.38;;
64401;SDS011;50724;42.376;23.768;2024-01-07T16:55:09;5.35;;;2.60;;
64401;SDS011;50724;42.376;23.768;2024-01-07T16:58:10;4.80;;;2.47;;
64401;SDS011;50724;42.376;23.768;2024-01-07T17:01:10;14.13;;;6.53;;
64401;SDS011;50724;42.376;23.768;2024-01-07T17:04:10;17.25;;;8.77;;
64401;SDS011;50724;42.376;23.768;2024-01-07T17:07:11;19.05;;;8.90;;
64401;SDS011;50724;42.376;23.768;2024-01-07T17:10:11;12.82;;;5.28;;
64401;SDS011;50724;42.376;23.768;2024-01-07T17:13:12;11.90;;;5.97;;
64401;SDS011;50724;42.376;23.768;2024-01-07T17:16:13;7.90;;;3.38;;
64401;SDS011;50724;42.376;23.768;2024-01-07T17:19:13;10.40;;;4.75;;
64401;SDS011;50724;42.376;23.768;2024-01-07T17:22:14;8.35;;;3.63;;
64401;SDS011;50724;42.376;23.768;2024-01-07T17:25:14;8.52;;;3.53;;
64401;SDS011;50724;42.376;23.768;2024-01-07T17:28:15;8.45;;;3.80;;
64401;SDS011;50724;42.376;23.768;2024-01-07T17:31:16;8.02;;;3.67;;
64401;SDS011;50724;42.376;23.768;2024-01-07T17:34:17;8.13;;;3.15;;
64401;SDS011;50724;42.376;23.768;2024-01-07T17:37:17;6.75;;;3.20;;
64401;SDS011;50724;42.376;23.768;2024-01-07T17:40:18;8.32;;;3.53;;
64401;SDS011;50724;42.376;23.768;2024-01-07T17:43:18;7.07;;;3.38;;
64401;SDS011;50724;42.376;23.768;2024-01-07T17:46:19;8.10;;;3.33;;
64401;SDS011;50724;42.376;23.768;2024-01-07T17:49:19;8.77;;;3.25;;